sensor_id;sensor_type;location;lat;lon;timestamp;temperature;humidity
52555;DHT22;38455;52.710;6.502;2022-10-16T00:00:35;12.80;99.90
52555;DHT22;38455;52.710;6.502;2022-10-16T00:03:02;12.80;99.90
52555;DHT22;38455;52.710;6.502;2022-10-16T00:05:27;12.80;99.90
52555;DHT22;38455;52.710;6.502;2022-10-16T00:07:53;12.80;99.90
52555;DHT22;38455;52.710;6.502;2022-10-16T00:10:19;12.80;99.90
52555;DHT22;38455;52.710;6.502;2022-10-16T00:12:44;12.80;99.90
52555;DHT22;38455;52.710;6.502;2022-10-16T00:15:10;12.80;99.90
52555;DHT22;38455;52.710;6.502;2022-10-16T00:17:36;12.90;99.90
52555;DHT22;38455;52.710;6.502;2022-10-16T00:20:01;12.90;99.90
52555;DHT22;38455;52.710;6.502;2022-10-16T00:22:28;12.80;99.90
52555;DHT22;38455;52.710;6.502;2022-10-16T00:24:53;12.80;99.90
52555;DHT22;38455;52.710;6.502;2022-10-16T00:27:19;12.80;99.90
52555;DHT22;38455;52.710;6.502;2022-10-16T00:29:44;12.70;99.90
52555;DHT22;38455;52.710;6.502;2022-10-16T00:32:10;12.70;99.90
52555;DHT22;38455;52.710;6.502;2022-10-16T00:34:36;12.60;99.90
52555;DHT22;38455;52.710;6.502;2022-10-16T00:37:02;12.60;99.90
52555;DHT22;38455;52.710;6.502;2022-10-16T00:39:28;12.60;99.90
52555;DHT22;38455;52.710;6.502;2022-10-16T00:41:53;12.60;99.90
52555;DHT22;38455;52.710;6.502;2022-10-16T00:44:42;12.60;99.90
52555;DHT22;38455;52.710;6.502;2022-10-16T00:47:17;12.50;99.90
52555;DHT22;38455;52.710;6.502;2022-10-16T00:49:44;12.50;99.90
52555;DHT22;38455;52.710;6.502;2022-10-16T00:52:10;12.40;99.90
52555;DHT22;38455;52.710;6.502;2022-10-16T00:54:36;12.40;99.90
52555;DHT22;38455;52.710;6.502;2022-10-16T00:57:04;12.40;99.90
52555;DHT22;38455;52.710;6.502;2022-10-16T00:59:36;12.40;99.90
52555;DHT22;38455;52.710;6.502;2022-10-16T01:02:04;12.40;99.90
52555;DHT22;38455;52.710;6.502;2022-10-16T01:04:48;12.40;99.90
52555;DHT22;38455;52.710;6.502;2022-10-16T01:07:25;12.40;99.90
52555;DHT22;38455;52.710;6.502;2022-10-16T01:15:13;12.40;99.90
52555;DHT22;38455;52.710;6.502;2022-10-16T01:20:24;12.40;99.90
52555;DHT22;38455;52.710;6.502;2022-10-16T01:23:10;12.40;99.90
52555;DHT22;38455;52.710;6.502;2022-10-16T01:28:15;12.40;99.90
52555;DHT22;38455;52.710;6.502;2022-10-16T01:30:44;12.50;99.90
52555;DHT22;38455;52.710;6.502;2022-10-16T01:33:23;12.50;99.90
52555;DHT22;38455;52.710;6.502;2022-10-16T01:35:55;12.40;99.90
52555;DHT22;38455;52.710;6.502;2022-10-16T01:38:32;12.50;99.90
52555;DHT22;38455;52.710;6.502;2022-10-16T01:41:00;12.40;99.90
52555;DHT22;38455;52.710;6.502;2022-10-16T01:43:35;12.40;99.90
52555;DHT22;38455;52.710;6.502;2022-10-16T01:46:03;12.40;99.90
52555;DHT22;38455;52.710;6.502;2022-10-16T01:48:29;12.50;99.90
52555;DHT22;38455;52.710;6.502;2022-10-16T01:51:16;12.50;99.90
52555;DHT22;38455;52.710;6.502;2022-10-16T01:53:47;12.50;99.90
52555;DHT22;38455;52.710;6.502;2022-10-16T01:56:15;12.60;99.90
52555;DHT22;38455;52.710;6.502;2022-10-16T01:58:47;12.60;99.90
52555;DHT22;38455;52.710;6.502;2022-10-16T02:01:16;12.60;99.90
52555;DHT22;38455;52.710;6.502;2022-10-16T02:03:44;12.70;99.90
52555;DHT22;38455;52.710;6.502;2022-10-16T02:06:12;12.70;99.90
52555;DHT22;38455;52.710;6.502;2022-10-16T02:08:38;12.70;99.90
52555;DHT22;38455;52.710;6.502;2022-10-16T02:11:05;12.70;99.90
52555;DHT22;38455;52.710;6.502;2022-10-16T02:13:43;12.70;99.90
52555;DHT22;38455;52.710;6.502;2022-10-16T02:16:12;12.70;99.90
52555;DHT22;38455;52.710;6.502;2022-10-16T02:18:38;12.70;99.90
52555;DHT22;38455;52.710;6.502;2022-10-16T02:21:23;12.70;99.90
52555;DHT22;38455;52.710;6.502;2022-10-16T02:24:27;12.80;99.90
52555;DHT22;38455;52.710;6.502;2022-10-16T02:27:10;12.80;99.90
52555;DHT22;38455;52.710;6.502;2022-10-16T02:29:40;12.80;99.90
52555;DHT22;38455;52.710;6.502;2022-10-16T02:32:10;12.80;99.90
52555;DHT22;38455;52.710;6.502;2022-10-16T02:34:40;12.90;99.90
52555;DHT22;38455;52.710;6.502;2022-10-16T02:39:54;12.90;99.90
52555;DHT22;38455;52.710;6.502;2022-10-16T02:42:20;12.90;99.90
52555;DHT22;38455;52.710;6.502;2022-10-16T02:44:45;13.00;99.90
52555;DHT22;38455;52.710;6.502;2022-10-16T02:47:11;13.00;99.90
52555;DHT22;38455;52.710;6.502;2022-10-16T02:49:37;13.00;99.90
52555;DHT22;38455;52.710;6.502;2022-10-16T02:52:03;13.00;99.90
52555;DHT22;38455;52.710;6.502;2022-10-16T02:54:29;13.00;99.90
52555;DHT22;38455;52.710;6.502;2022-10-16T02:56:54;13.00;99.90
52555;DHT22;38455;52.710;6.502;2022-10-16T02:59:20;13.00;99.90
52555;DHT22;38455;52.710;6.502;2022-10-16T03:01:45;13.00;99.90
52555;DHT22;38455;52.710;6.502;2022-10-16T03:04:11;13.00;99.90
52555;DHT22;38455;52.710;6.502;2022-10-16T03:06:37;13.00;99.90
52555;DHT22;38455;52.710;6.502;2022-10-16T03:09:02;13.00;99.90
52555;DHT22;38455;52.710;6.502;2022-10-16T03:11:28;13.00;99.90
52555;DHT22;38455;52.710;6.502;2022-10-16T03:13:53;13.00;99.90
52555;DHT22;38455;52.710;6.502;2022-10-16T03:16:19;13.00;99.90
52555;DHT22;38455;52.710;6.502;2022-10-16T03:18:48;13.00;99.90
52555;DHT22;38455;52.710;6.502;2022-10-16T03:21:15;13.00;99.90
52555;DHT22;38455;52.710;6.502;2022-10-16T03:23:40;13.00;99.90
52555;DHT22;38455;52.710;6.502;2022-10-16T03:26:06;13.00;99.90
52555;DHT22;38455;52.710;6.502;2022-10-16T03:28:31;13.00;99.90
52555;DHT22;38455;52.710;6.502;2022-10-16T03:30:57;13.00;99.90
52555;DHT22;38455;52.710;6.502;2022-10-16T03:33:23;13.00;99.90
52555;DHT22;38455;52.710;6.502;2022-10-16T03:35:52;13.00;99.90
52555;DHT22;38455;52.710;6.502;2022-10-16T03:38:18;12.90;99.90
52555;DHT22;38455;52.710;6.502;2022-10-16T03:40:44;13.00;99.90
52555;DHT22;38455;52.710;6.502;2022-10-16T03:43:10;12.90;99.90
52555;DHT22;38455;52.710;6.502;2022-10-16T03:45:35;12.90;99.90
52555;DHT22;38455;52.710;6.502;2022-10-16T03:48:01;12.90;99.90
52555;DHT22;38455;52.710;6.502;2022-10-16T03:50:29;12.90;99.90
52555;DHT22;38455;52.710;6.502;2022-10-16T03:52:54;12.90;99.90
52555;DHT22;38455;52.710;6.502;2022-10-16T03:55:20;12.90;99.90
52555;DHT22;38455;52.710;6.502;2022-10-16T03:57:46;12.90;99.90
52555;DHT22;38455;52.710;6.502;2022-10-16T04:00:11;12.80;99.90
52555;DHT22;38455;52.710;6.502;2022-10-16T04:02:37;12.80;99.90
52555;DHT22;38455;52.710;6.502;2022-10-16T04:05:03;12.80;99.90
52555;DHT22;38455;52.710;6.502;2022-10-16T04:07:29;12.70;99.90
52555;DHT22;38455;52.710;6.502;2022-10-16T04:09:54;12.70;99.90
52555;DHT22;38455;52.710;6.502;2022-10-16T04:12:21;12.60;99.90
52555;DHT22;38455;52.710;6.502;2022-10-16T04:14:46;12.60;99.90
52555;DHT22;38455;52.710;6.502;2022-10-16T04:17:12;12.60;99.90
52555;DHT22;38455;52.710;6.502;2022-10-16T04:19:38;12.50;99.90
52555;DHT22;38455;52.710;6.502;2022-10-16T04:22:03;12.50;99.90
52555;DHT22;38455;52.710;6.502;2022-10-16T04:24:29;12.60;99.90
52555;DHT22;38455;52.710;6.502;2022-10-16T04:26:54;12.60;99.90
52555;DHT22;38455;52.710;6.502;2022-10-16T04:29:20;12.50;99.90
52555;DHT22;38455;52.710;6.502;2022-10-16T04:31:46;12.50;99.90
52555;DHT22;38455;52.710;6.502;2022-10-16T04:34:12;12.50;99.90
52555;DHT22;38455;52.710;6.502;2022-10-16T04:36:37;12.40;99.90
52555;DHT22;38455;52.710;6.502;2022-10-16T04:39:03;12.50;99.90
52555;DHT22;38455;52.710;6.502;2022-10-16T04:41:29;12.50;99.90
52555;DHT22;38455;52.710;6.502;2022-10-16T04:43:54;12.50;99.90
52555;DHT22;38455;52.710;6.502;2022-10-16T04:46:20;12.50;99.90
52555;DHT22;38455;52.710;6.502;2022-10-16T04:48:45;12.50;99.90
52555;DHT22;38455;52.710;6.502;2022-10-16T04:51:12;12.50;99.90
52555;DHT22;38455;52.710;6.502;2022-10-16T04:53:38;12.50;99.90
52555;DHT22;38455;52.710;6.502;2022-10-16T04:56:04;12.50;99.90
52555;DHT22;38455;52.710;6.502;2022-10-16T04:58:29;12.50;99.90
52555;DHT22;38455;52.710;6.502;2022-10-16T05:00:55;12.50;99.90
52555;DHT22;38455;52.710;6.502;2022-10-16T05:03:21;12.50;99.90
52555;DHT22;38455;52.710;6.502;2022-10-16T05:05:46;12.50;99.90
52555;DHT22;38455;52.710;6.502;2022-10-16T05:08:16;12.50;99.90
52555;DHT22;38455;52.710;6.502;2022-10-16T05:10:42;12.40;99.90
52555;DHT22;38455;52.710;6.502;2022-10-16T05:13:08;12.40;99.90
52555;DHT22;38455;52.710;6.502;2022-10-16T05:15:34;12.40;99.90
52555;DHT22;38455;52.710;6.502;2022-10-16T05:18:00;12.40;99.90
52555;DHT22;38455;52.710;6.502;2022-10-16T05:20:25;12.40;99.90
52555;DHT22;38455;52.710;6.502;2022-10-16T05:22:51;12.30;99.90
52555;DHT22;38455;52.710;6.502;2022-10-16T05:25:17;12.30;99.90
52555;DHT22;38455;52.710;6.502;2022-10-16T05:27:43;12.30;99.90
52555;DHT22;38455;52.710;6.502;2022-10-16T05:30:09;12.20;99.90
52555;DHT22;38455;52.710;6.502;2022-10-16T05:32:34;12.20;99.90
52555;DHT22;38455;52.710;6.502;2022-10-16T05:35:00;12.30;99.90
52555;DHT22;38455;52.710;6.502;2022-10-16T05:37:27;12.30;99.90
52555;DHT22;38455;52.710;6.502;2022-10-16T05:39:53;12.20;99.90
52555;DHT22;38455;52.710;6.502;2022-10-16T05:42:18;12.20;99.90
52555;DHT22;38455;52.710;6.502;2022-10-16T05:44:44;12.30;99.90
52555;DHT22;38455;52.710;6.502;2022-10-16T05:47:10;12.30;99.90
52555;DHT22;38455;52.710;6.502;2022-10-16T05:49:37;12.20;99.90
52555;DHT22;38455;52.710;6.502;2022-10-16T05:52:03;12.30;99.90
52555;DHT22;38455;52.710;6.502;2022-10-16T05:54:28;12.30;99.90
52555;DHT22;38455;52.710;6.502;2022-10-16T05:56:54;12.20;99.90
52555;DHT22;38455;52.710;6.502;2022-10-16T05:59:19;12.30;99.90
52555;DHT22;38455;52.710;6.502;2022-10-16T06:01:45;12.20;99.90
52555;DHT22;38455;52.710;6.502;2022-10-16T06:04:10;12.20;99.90
52555;DHT22;38455;52.710;6.502;2022-10-16T06:06:36;12.10;99.90
52555;DHT22;38455;52.710;6.502;2022-10-16T06:09:03;12.10;99.90
52555;DHT22;38455;52.710;6.502;2022-10-16T06:11:30;12.10;99.90
52555;DHT22;38455;52.710;6.502;2022-10-16T06:13:58;12.20;99.90
52555;DHT22;38455;52.710;6.502;2022-10-16T06:16:26;12.20;99.90
52555;DHT22;38455;52.710;6.502;2022-10-16T06:18:53;12.20;99.90
52555;DHT22;38455;52.710;6.502;2022-10-16T06:21:21;12.20;99.90
52555;DHT22;38455;52.710;6.502;2022-10-16T06:23:47;12.20;99.90
52555;DHT22;38455;52.710;6.502;2022-10-16T06:26:15;12.30;99.90
52555;DHT22;38455;52.710;6.502;2022-10-16T06:28:41;12.30;99.90
52555;DHT22;38455;52.710;6.502;2022-10-16T06:31:09;12.40;99.90
52555;DHT22;38455;52.710;6.502;2022-10-16T06:33:35;12.40;99.90
52555;DHT22;38455;52.710;6.502;2022-10-16T06:36:10;12.40;99.90
52555;DHT22;38455;52.710;6.502;2022-10-16T06:38:37;12.50;99.90
52555;DHT22;38455;52.710;6.502;2022-10-16T06:41:04;12.40;99.90
52555;DHT22;38455;52.710;6.502;2022-10-16T06:43:32;12.50;99.90
52555;DHT22;38455;52.710;6.502;2022-10-16T06:45:59;12.60;99.90
52555;DHT22;38455;52.710;6.502;2022-10-16T06:48:25;12.70;99.90
52555;DHT22;38455;52.710;6.502;2022-10-16T06:50:59;12.80;99.90
52555;DHT22;38455;52.710;6.502;2022-10-16T06:53:25;12.80;99.90
52555;DHT22;38455;52.710;6.502;2022-10-16T06:55:51;12.90;99.90
52555;DHT22;38455;52.710;6.502;2022-10-16T06:58:17;12.90;99.90
52555;DHT22;38455;52.710;6.502;2022-10-16T07:00:42;13.10;99.90
52555;DHT22;38455;52.710;6.502;2022-10-16T07:03:08;13.10;99.90
52555;DHT22;38455;52.710;6.502;2022-10-16T07:05:41;13.10;99.90
52555;DHT22;38455;52.710;6.502;2022-10-16T07:08:07;13.20;99.90
52555;DHT22;38455;52.710;6.502;2022-10-16T07:10:33;13.20;99.90
52555;DHT22;38455;52.710;6.502;2022-10-16T07:12:59;13.20;99.90
52555;DHT22;38455;52.710;6.502;2022-10-16T07:15:25;13.20;99.90
52555;DHT22;38455;52.710;6.502;2022-10-16T07:17:51;13.20;99.90
52555;DHT22;38455;52.710;6.502;2022-10-16T07:20:17;13.20;99.90
52555;DHT22;38455;52.710;6.502;2022-10-16T07:22:43;13.30;99.90
52555;DHT22;38455;52.710;6.502;2022-10-16T07:25:09;13.50;99.90
52555;DHT22;38455;52.710;6.502;2022-10-16T07:27:34;13.60;99.90
52555;DHT22;38455;52.710;6.502;2022-10-16T07:30:01;13.80;99.90
52555;DHT22;38455;52.710;6.502;2022-10-16T07:32:26;14.00;99.90
52555;DHT22;38455;52.710;6.502;2022-10-16T07:34:52;14.10;99.90
52555;DHT22;38455;52.710;6.502;2022-10-16T07:37:18;14.20;99.90
52555;DHT22;38455;52.710;6.502;2022-10-16T07:39:44;14.20;99.90
52555;DHT22;38455;52.710;6.502;2022-10-16T07:42:09;14.20;99.90
52555;DHT22;38455;52.710;6.502;2022-10-16T07:44:35;14.20;99.90
52555;DHT22;38455;52.710;6.502;2022-10-16T07:47:01;14.10;99.90
52555;DHT22;38455;52.710;6.502;2022-10-16T07:49:27;14.20;99.90
52555;DHT22;38455;52.710;6.502;2022-10-16T07:51:53;14.20;99.90
52555;DHT22;38455;52.710;6.502;2022-10-16T07:54:18;14.30;99.90
52555;DHT22;38455;52.710;6.502;2022-10-16T07:56:44;14.20;99.90
52555;DHT22;38455;52.710;6.502;2022-10-16T07:59:10;14.20;99.90
52555;DHT22;38455;52.710;6.502;2022-10-16T08:01:36;14.20;99.90
52555;DHT22;38455;52.710;6.502;2022-10-16T08:04:01;14.20;99.90
52555;DHT22;38455;52.710;6.502;2022-10-16T08:06:27;14.30;99.90
52555;DHT22;38455;52.710;6.502;2022-10-16T08:08:53;14.50;99.90
52555;DHT22;38455;52.710;6.502;2022-10-16T08:11:18;14.60;99.90
52555;DHT22;38455;52.710;6.502;2022-10-16T08:13:44;14.70;99.90
52555;DHT22;38455;52.710;6.502;2022-10-16T08:16:10;14.70;99.90
52555;DHT22;38455;52.710;6.502;2022-10-16T08:18:38;14.70;99.90
52555;DHT22;38455;52.710;6.502;2022-10-16T08:21:05;14.70;99.90
52555;DHT22;38455;52.710;6.502;2022-10-16T08:23:30;14.80;99.90
52555;DHT22;38455;52.710;6.502;2022-10-16T08:26:03;14.80;99.90
52555;DHT22;38455;52.710;6.502;2022-10-16T08:28:29;14.90;99.90
52555;DHT22;38455;52.710;6.502;2022-10-16T08:30:54;15.20;99.90
52555;DHT22;38455;52.710;6.502;2022-10-16T08:33:22;15.50;99.90
52555;DHT22;38455;52.710;6.502;2022-10-16T08:35:53;16.00;99.90
52555;DHT22;38455;52.710;6.502;2022-10-16T08:38:20;16.10;99.90
52555;DHT22;38455;52.710;6.502;2022-10-16T08:40:46;16.00;99.90
52555;DHT22;38455;52.710;6.502;2022-10-16T08:48:52;16.40;99.90
52555;DHT22;38455;52.710;6.502;2022-10-16T08:51:24;16.70;99.90
52555;DHT22;38455;52.710;6.502;2022-10-16T08:53:56;16.90;99.90
52555;DHT22;38455;52.710;6.502;2022-10-16T08:56:23;17.70;99.90
52555;DHT22;38455;52.710;6.502;2022-10-16T08:58:50;18.90;99.90
52555;DHT22;38455;52.710;6.502;2022-10-16T09:01:18;19.90;99.90
52555;DHT22;38455;52.710;6.502;2022-10-16T09:04:39;21.00;99.90
52555;DHT22;38455;52.710;6.502;2022-10-16T09:12:55;22.90;99.90
52555;DHT22;38455;52.710;6.502;2022-10-16T09:15:29;23.30;99.90
52555;DHT22;38455;52.710;6.502;2022-10-16T09:18:06;23.70;99.90
52555;DHT22;38455;52.710;6.502;2022-10-16T09:20:42;24.00;99.90
52555;DHT22;38455;52.710;6.502;2022-10-16T09:23:28;24.00;99.90
52555;DHT22;38455;52.710;6.502;2022-10-16T09:25:55;24.40;99.90
52555;DHT22;38455;52.710;6.502;2022-10-16T09:28:21;24.60;99.90
52555;DHT22;38455;52.710;6.502;2022-10-16T09:30:47;24.70;99.90
52555;DHT22;38455;52.710;6.502;2022-10-16T09:33:18;24.60;99.90
52555;DHT22;38455;52.710;6.502;2022-10-16T09:35:54;24.90;99.90
52555;DHT22;38455;52.710;6.502;2022-10-16T09:38:24;24.80;99.90
52555;DHT22;38455;52.710;6.502;2022-10-16T09:40:50;24.90;99.90
52555;DHT22;38455;52.710;6.502;2022-10-16T09:46:05;25.60;98.10
52555;DHT22;38455;52.710;6.502;2022-10-16T09:51:05;26.00;97.20
52555;DHT22;38455;52.710;6.502;2022-10-16T09:54:02;26.10;96.70
52555;DHT22;38455;52.710;6.502;2022-10-16T09:56:30;25.90;94.50
52555;DHT22;38455;52.710;6.502;2022-10-16T09:59:00;26.30;96.40
52555;DHT22;38455;52.710;6.502;2022-10-16T10:01:44;26.20;95.70
52555;DHT22;38455;52.710;6.502;2022-10-16T10:04:11;26.50;93.20
52555;DHT22;38455;52.710;6.502;2022-10-16T10:06:51;26.50;95.10
52555;DHT22;38455;52.710;6.502;2022-10-16T10:09:25;26.80;93.20
52555;DHT22;38455;52.710;6.502;2022-10-16T10:11:58;26.80;92.50
52555;DHT22;38455;52.710;6.502;2022-10-16T10:14:39;26.80;92.30
52555;DHT22;38455;52.710;6.502;2022-10-16T10:17:12;26.50;92.10
52555;DHT22;38455;52.710;6.502;2022-10-16T10:27:49;24.70;92.40
52555;DHT22;38455;52.710;6.502;2022-10-16T10:38:54;25.50;92.30
52555;DHT22;38455;52.710;6.502;2022-10-16T10:47:06;26.10;91.10
52555;DHT22;38455;52.710;6.502;2022-10-16T11:11:35;23.80;91.80
52555;DHT22;38455;52.710;6.502;2022-10-16T11:17:05;24.00;90.90
52555;DHT22;38455;52.710;6.502;2022-10-16T11:19:38;23.70;91.50
52555;DHT22;38455;52.710;6.502;2022-10-16T11:22:44;23.30;91.20
52555;DHT22;38455;52.710;6.502;2022-10-16T11:25:25;22.90;91.30
52555;DHT22;38455;52.710;6.502;2022-10-16T11:36:21;23.80;92.40
52555;DHT22;38455;52.710;6.502;2022-10-16T11:39:10;24.50;91.30
52555;DHT22;38455;52.710;6.502;2022-10-16T11:41:39;23.70;90.90
52555;DHT22;38455;52.710;6.502;2022-10-16T11:49:32;23.80;91.90
52555;DHT22;38455;52.710;6.502;2022-10-16T11:52:11;24.30;91.40
52555;DHT22;38455;52.710;6.502;2022-10-16T11:57:20;24.90;89.90
52555;DHT22;38455;52.710;6.502;2022-10-16T11:59:55;25.40;90.10
52555;DHT22;38455;52.710;6.502;2022-10-16T12:03:26;25.90;87.70
52555;DHT22;38455;52.710;6.502;2022-10-16T12:08:26;26.40;84.00
52555;DHT22;38455;52.710;6.502;2022-10-16T12:10:52;25.60;86.40
52555;DHT22;38455;52.710;6.502;2022-10-16T12:13:37;24.70;86.50
52555;DHT22;38455;52.710;6.502;2022-10-16T12:16:24;23.90;89.70
52555;DHT22;38455;52.710;6.502;2022-10-16T12:18:50;23.00;90.30
52555;DHT22;38455;52.710;6.502;2022-10-16T12:21:30;22.30;92.10
52555;DHT22;38455;52.710;6.502;2022-10-16T12:23:58;22.00;92.90
52555;DHT22;38455;52.710;6.502;2022-10-16T12:26:31;21.70;93.30
52555;DHT22;38455;52.710;6.502;2022-10-16T12:31:55;21.30;94.40
52555;DHT22;38455;52.710;6.502;2022-10-16T12:34:43;20.90;94.30
52555;DHT22;38455;52.710;6.502;2022-10-16T12:37:15;20.80;94.30
52555;DHT22;38455;52.710;6.502;2022-10-16T12:39:45;20.60;94.50
52555;DHT22;38455;52.710;6.502;2022-10-16T12:42:33;20.60;95.70
52555;DHT22;38455;52.710;6.502;2022-10-16T12:44:59;20.70;95.70
52555;DHT22;38455;52.710;6.502;2022-10-16T12:49:58;20.40;96.10
52555;DHT22;38455;52.710;6.502;2022-10-16T12:52:36;20.20;96.00
52555;DHT22;38455;52.710;6.502;2022-10-16T12:55:04;20.10;97.00
52555;DHT22;38455;52.710;6.502;2022-10-16T13:00:50;19.70;97.60
52555;DHT22;38455;52.710;6.502;2022-10-16T13:06:18;19.50;99.50
52555;DHT22;38455;52.710;6.502;2022-10-16T13:30:23;18.80;99.90
52555;DHT22;38455;52.710;6.502;2022-10-16T13:32:58;18.70;99.90
52555;DHT22;38455;52.710;6.502;2022-10-16T13:35:27;18.60;99.90
52555;DHT22;38455;52.710;6.502;2022-10-16T13:38:14;18.60;99.90
52555;DHT22;38455;52.710;6.502;2022-10-16T13:40:50;18.50;99.90
52555;DHT22;38455;52.710;6.502;2022-10-16T13:43:40;18.50;99.90
52555;DHT22;38455;52.710;6.502;2022-10-16T13:46:21;18.50;99.90
52555;DHT22;38455;52.710;6.502;2022-10-16T13:49:01;18.50;99.90
52555;DHT22;38455;52.710;6.502;2022-10-16T13:51:28;18.60;99.90
52555;DHT22;38455;52.710;6.502;2022-10-16T13:53:55;18.70;99.90
52555;DHT22;38455;52.710;6.502;2022-10-16T13:56:25;18.80;99.90
52555;DHT22;38455;52.710;6.502;2022-10-16T13:59:02;18.80;99.90
52555;DHT22;38455;52.710;6.502;2022-10-16T14:01:41;18.80;99.90
52555;DHT22;38455;52.710;6.502;2022-10-16T14:04:09;18.80;99.90
52555;DHT22;38455;52.710;6.502;2022-10-16T14:06:36;18.80;99.90
52555;DHT22;38455;52.710;6.502;2022-10-16T14:09:29;18.80;99.90
52555;DHT22;38455;52.710;6.502;2022-10-16T14:12:00;18.90;99.90
52555;DHT22;38455;52.710;6.502;2022-10-16T14:14:41;18.90;99.90
52555;DHT22;38455;52.710;6.502;2022-10-16T14:17:23;18.80;99.90
52555;DHT22;38455;52.710;6.502;2022-10-16T14:19:52;18.80;99.90
52555;DHT22;38455;52.710;6.502;2022-10-16T14:25:01;18.70;99.90
52555;DHT22;38455;52.710;6.502;2022-10-16T14:32:33;18.50;99.90
52555;DHT22;38455;52.710;6.502;2022-10-16T14:34:58;18.50;99.90
52555;DHT22;38455;52.710;6.502;2022-10-16T14:37:26;18.50;99.90
52555;DHT22;38455;52.710;6.502;2022-10-16T14:39:53;18.50;99.90
52555;DHT22;38455;52.710;6.502;2022-10-16T14:42:22;18.50;99.90
52555;DHT22;38455;52.710;6.502;2022-10-16T14:44:51;18.50;99.90
52555;DHT22;38455;52.710;6.502;2022-10-16T14:47:25;18.50;99.90
52555;DHT22;38455;52.710;6.502;2022-10-16T14:49:55;18.50;99.90
52555;DHT22;38455;52.710;6.502;2022-10-16T14:52:23;18.50;99.90
52555;DHT22;38455;52.710;6.502;2022-10-16T14:54:49;18.50;99.90
52555;DHT22;38455;52.710;6.502;2022-10-16T14:57:21;18.40;99.90
52555;DHT22;38455;52.710;6.502;2022-10-16T14:59:48;18.40;99.90
52555;DHT22;38455;52.710;6.502;2022-10-16T15:02:16;18.40;99.90
52555;DHT22;38455;52.710;6.502;2022-10-16T15:04:43;18.40;99.90
52555;DHT22;38455;52.710;6.502;2022-10-16T15:07:09;18.30;99.90
52555;DHT22;38455;52.710;6.502;2022-10-16T15:09:34;18.20;99.90
52555;DHT22;38455;52.710;6.502;2022-10-16T15:12:00;18.20;99.90
52555;DHT22;38455;52.710;6.502;2022-10-16T15:14:26;18.10;99.90
52555;DHT22;38455;52.710;6.502;2022-10-16T15:16:51;18.10;99.90
52555;DHT22;38455;52.710;6.502;2022-10-16T15:19:17;18.00;99.90
52555;DHT22;38455;52.710;6.502;2022-10-16T15:21:42;17.90;99.90
52555;DHT22;38455;52.710;6.502;2022-10-16T15:24:12;17.90;99.90
52555;DHT22;38455;52.710;6.502;2022-10-16T15:26:38;17.80;99.90
52555;DHT22;38455;52.710;6.502;2022-10-16T15:29:04;17.80;99.90
52555;DHT22;38455;52.710;6.502;2022-10-16T15:31:30;17.70;99.90
52555;DHT22;38455;52.710;6.502;2022-10-16T15:33:56;17.70;99.90
52555;DHT22;38455;52.710;6.502;2022-10-16T15:36:34;17.70;99.90
52555;DHT22;38455;52.710;6.502;2022-10-16T15:39:03;17.60;99.90
52555;DHT22;38455;52.710;6.502;2022-10-16T15:41:28;17.60;99.90
52555;DHT22;38455;52.710;6.502;2022-10-16T15:43:54;17.50;99.90
52555;DHT22;38455;52.710;6.502;2022-10-16T15:46:22;17.50;99.90
52555;DHT22;38455;52.710;6.502;2022-10-16T15:48:49;17.40;99.90
52555;DHT22;38455;52.710;6.502;2022-10-16T15:51:16;17.30;99.90
52555;DHT22;38455;52.710;6.502;2022-10-16T15:53:42;17.20;99.90
52555;DHT22;38455;52.710;6.502;2022-10-16T15:56:09;17.10;99.90
52555;DHT22;38455;52.710;6.502;2022-10-16T15:58:36;17.10;99.90
52555;DHT22;38455;52.710;6.502;2022-10-16T16:01:03;16.90;99.90
52555;DHT22;38455;52.710;6.502;2022-10-16T16:03:32;16.80;99.90
52555;DHT22;38455;52.710;6.502;2022-10-16T16:06:02;16.50;99.90
52555;DHT22;38455;52.710;6.502;2022-10-16T16:08:28;16.30;99.90
52555;DHT22;38455;52.710;6.502;2022-10-16T16:11:05;16.30;99.90
52555;DHT22;38455;52.710;6.502;2022-10-16T16:13:31;16.20;99.90
52555;DHT22;38455;52.710;6.502;2022-10-16T16:15:57;16.10;99.90
52555;DHT22;38455;52.710;6.502;2022-10-16T16:18:23;16.10;99.90
52555;DHT22;38455;52.710;6.502;2022-10-16T16:20:50;16.00;99.90
52555;DHT22;38455;52.710;6.502;2022-10-16T16:23:15;15.90;99.90
52555;DHT22;38455;52.710;6.502;2022-10-16T16:25:42;15.80;99.90
52555;DHT22;38455;52.710;6.502;2022-10-16T16:28:08;15.80;99.90
52555;DHT22;38455;52.710;6.502;2022-10-16T16:30:36;15.70;99.90
52555;DHT22;38455;52.710;6.502;2022-10-16T16:33:01;15.60;99.90
52555;DHT22;38455;52.710;6.502;2022-10-16T16:35:27;15.50;99.90
52555;DHT22;38455;52.710;6.502;2022-10-16T16:37:53;15.30;99.90
52555;DHT22;38455;52.710;6.502;2022-10-16T16:40:18;15.20;99.90
52555;DHT22;38455;52.710;6.502;2022-10-16T16:42:44;15.20;99.90
52555;DHT22;38455;52.710;6.502;2022-10-16T16:45:10;15.20;99.90
52555;DHT22;38455;52.710;6.502;2022-10-16T16:47:35;15.20;99.90
52555;DHT22;38455;52.710;6.502;2022-10-16T16:50:01;15.10;99.90
52555;DHT22;38455;52.710;6.502;2022-10-16T16:52:30;15.00;99.90
52555;DHT22;38455;52.710;6.502;2022-10-16T16:54:56;15.00;99.90
52555;DHT22;38455;52.710;6.502;2022-10-16T16:57:21;14.90;99.90
52555;DHT22;38455;52.710;6.502;2022-10-16T16:59:49;14.90;99.90
52555;DHT22;38455;52.710;6.502;2022-10-16T17:02:15;14.80;99.90
52555;DHT22;38455;52.710;6.502;2022-10-16T17:04:41;14.80;99.90
52555;DHT22;38455;52.710;6.502;2022-10-16T17:07:06;14.70;99.90
52555;DHT22;38455;52.710;6.502;2022-10-16T17:09:33;14.60;99.90
52555;DHT22;38455;52.710;6.502;2022-10-16T17:11:58;14.50;99.90
52555;DHT22;38455;52.710;6.502;2022-10-16T17:14:24;14.50;99.90
52555;DHT22;38455;52.710;6.502;2022-10-16T17:16:51;14.30;99.90
52555;DHT22;38455;52.710;6.502;2022-10-16T17:19:18;14.20;99.90
52555;DHT22;38455;52.710;6.502;2022-10-16T17:21:46;14.10;99.90
52555;DHT22;38455;52.710;6.502;2022-10-16T17:24:12;14.00;99.90
52555;DHT22;38455;52.710;6.502;2022-10-16T17:26:38;13.90;99.90
52555;DHT22;38455;52.710;6.502;2022-10-16T17:29:06;13.90;99.90
52555;DHT22;38455;52.710;6.502;2022-10-16T17:31:36;13.80;99.90
52555;DHT22;38455;52.710;6.502;2022-10-16T17:34:04;13.70;99.90
52555;DHT22;38455;52.710;6.502;2022-10-16T17:36:33;13.70;99.90
52555;DHT22;38455;52.710;6.502;2022-10-16T17:39:00;13.70;99.90
52555;DHT22;38455;52.710;6.502;2022-10-16T17:41:29;13.70;99.90
52555;DHT22;38455;52.710;6.502;2022-10-16T17:43:54;13.70;99.90
52555;DHT22;38455;52.710;6.502;2022-10-16T17:46:22;13.60;99.90
52555;DHT22;38455;52.710;6.502;2022-10-16T17:48:50;13.70;99.90
52555;DHT22;38455;52.710;6.502;2022-10-16T17:51:21;13.70;99.90
52555;DHT22;38455;52.710;6.502;2022-10-16T17:53:58;13.70;99.90
52555;DHT22;38455;52.710;6.502;2022-10-16T17:56:26;13.70;99.90
52555;DHT22;38455;52.710;6.502;2022-10-16T17:58:54;13.60;99.90